THA311 VTBS-VECC
Flight info
| Callsign | THA311 |
|---|---|
| Flight time | 2h 32m |
| Altitude | 36000 |
| Route | TARED1J TARED P646 DOPID DOPID2A |
| Aircraft | A320/M-SDE3FGHIRWY/LB1 |
Departure
| Time | 2026-04-23 15:50 |
|---|---|
| Airport | Suvarnabhumi Airport (VTBS) |
Arrival
| Time | 2026-04-23 18:23 |
|---|---|
| Airport | Netaji Subhash Chandra Bose International Airport (VECC) |
| Time | Latitude | Longitude | Altitude | Speed | Heading |
|---|---|---|---|---|---|
| 2026-04-23 15:02 | 13.69327 | 100.75556 | 13 ft | 0 kts | 284° |
| 2026-04-23 15:40 | 13.69325 | 100.75562 | 13 ft | 2 kts | 284° |
| 2026-04-23 15:40 | 13.69321 | 100.75583 | 16 ft | 3 kts | 280° |
| 2026-04-23 15:41 | 13.69318 | 100.75603 | 16 ft | 3 kts | 275° |
| 2026-04-23 15:41 | 13.69317 | 100.75624 | 16 ft | 3 kts | 264° |
| 2026-04-23 15:41 | 13.69321 | 100.75643 | 15 ft | 3 kts | 238° |
| 2026-04-23 15:41 | 13.69331 | 100.75654 | 14 ft | 1 kts | 195° |
| 2026-04-23 15:42 | 13.69336 | 100.75656 | 13 ft | 0 kts | 194° |
| 2026-04-23 15:45 | 13.69322 | 100.75652 | 14 ft | 5 kts | 194° |
| 2026-04-23 15:45 | 13.69265 | 100.75638 | 13 ft | 11 kts | 193° |
| 2026-04-23 15:45 | 13.69182 | 100.75626 | 13 ft | 12 kts | 156° |
| 2026-04-23 15:46 | 13.69145 | 100.75707 | 13 ft | 14 kts | 104° |
| 2026-04-23 15:46 | 13.69120 | 100.75808 | 13 ft | 15 kts | 105° |
| 2026-04-23 15:46 | 13.69093 | 100.75914 | 13 ft | 14 kts | 104° |
| 2026-04-23 15:46 | 13.69083 | 100.75956 | 13 ft | 0 kts | 104° |
| 2026-04-23 15:48 | 13.69080 | 100.75965 | 13 ft | 4 kts | 104° |
| 2026-04-23 15:48 | 13.69074 | 100.75990 | 14 ft | 7 kts | 104° |
| 2026-04-23 15:48 | 13.69031 | 100.76063 | 13 ft | 10 kts | 166° |
| 2026-04-23 15:48 | 13.69000 | 100.76059 | 13 ft | 0 kts | 198° |
| 2026-04-23 15:49 | 13.68997 | 100.76058 | 13 ft | 1 kts | 195° |
| 2026-04-23 15:49 | 13.68850 | 100.76020 | 15 ft | 53 kts | 194° |
| 2026-04-23 15:49 | 13.68294 | 100.75875 | 13 ft | 109 kts | 194° |
| 2026-04-23 15:49 | 13.67412 | 100.75648 | 13 ft | 150 kts | 193° |
| 2026-04-23 15:50 | 13.66363 | 100.75372 | 398 ft | 160 kts | 193° |
| 2026-04-23 15:50 | 13.65270 | 100.75152 | 1003 ft | 160 kts | 181° |
| 2026-04-23 15:50 | 13.64136 | 100.75154 | 1397 ft | 170 kts | 180° |
| 2026-04-23 15:50 | 13.62874 | 100.75174 | 1565 ft | 193 kts | 180° |
| 2026-04-23 15:51 | 13.61452 | 100.75197 | 1883 ft | 211 kts | 180° |
| 2026-04-23 15:51 | 13.59954 | 100.75307 | 2392 ft | 225 kts | 173° |
| 2026-04-23 15:51 | 13.58338 | 100.75661 | 2718 ft | 248 kts | 167° |
| 2026-04-23 15:51 | 13.56679 | 100.76164 | 3339 ft | 255 kts | 165° |
| 2026-04-23 15:52 | 13.54960 | 100.76717 | 4044 ft | 261 kts | 163° |
| 2026-04-23 15:52 | 13.53211 | 100.77273 | 4772 ft | 265 kts | 163° |
| 2026-04-23 15:52 | 13.51424 | 100.77825 | 5468 ft | 270 kts | 163° |
| 2026-04-23 15:52 | 13.49596 | 100.78361 | 6158 ft | 274 kts | 167° |
| 2026-04-23 15:53 | 13.47681 | 100.78519 | 6810 ft | 280 kts | 184° |
| 2026-04-23 15:53 | 13.45785 | 100.78110 | 7417 ft | 285 kts | 198° |
| 2026-04-23 15:53 | 13.44073 | 100.77076 | 8049 ft | 290 kts | 224° |
| 2026-04-23 15:53 | 13.42991 | 100.75331 | 8661 ft | 295 kts | 253° |
| 2026-04-23 15:54 | 13.42858 | 100.73238 | 9273 ft | 298 kts | 282° |
| 2026-04-23 15:54 | 13.43353 | 100.71145 | 9905 ft | 301 kts | 285° |
| 2026-04-23 15:54 | 13.43895 | 100.69018 | 10190 ft | 318 kts | 285° |
| 2026-04-23 15:54 | 13.44478 | 100.66753 | 10317 ft | 338 kts | 285° |
| 2026-04-23 15:55 | 13.45091 | 100.64355 | 10510 ft | 353 kts | 285° |
| 2026-04-23 15:55 | 13.45839 | 100.61932 | 10949 ft | 358 kts | 296° |
| 2026-04-23 15:55 | 13.47195 | 100.59809 | 11419 ft | 361 kts | 313° |
| 2026-04-23 15:55 | 13.49151 | 100.58186 | 11937 ft | 363 kts | 332° |
| 2026-04-23 15:56 | 13.51510 | 100.57263 | 12437 ft | 365 kts | 349° |
| 2026-04-23 15:56 | 13.54046 | 100.57103 | 12931 ft | 367 kts | 2° |
| 2026-04-23 15:56 | 13.56575 | 100.57176 | 13429 ft | 370 kts | 2° |
| 2026-04-23 15:56 | 13.59165 | 100.57254 | 13888 ft | 373 kts | 2° |
| 2026-04-23 15:57 | 13.61776 | 100.57332 | 14355 ft | 375 kts | 2° |
| 2026-04-23 15:57 | 13.64401 | 100.57406 | 14810 ft | 377 kts | 2° |
| 2026-04-23 15:57 | 13.67000 | 100.57476 | 15261 ft | 379 kts | 2° |
| 2026-04-23 15:57 | 13.69659 | 100.57545 | 15722 ft | 381 kts | 1° |
| 2026-04-23 15:58 | 13.72305 | 100.57614 | 16152 ft | 383 kts | 1° |
| 2026-04-23 15:58 | 13.74994 | 100.57638 | 16572 ft | 386 kts | 356° |
| 2026-04-23 15:58 | 13.77654 | 100.57213 | 17000 ft | 388 kts | 345° |
| 2026-04-23 15:58 | 13.80159 | 100.56252 | 17468 ft | 389 kts | 334° |
| 2026-04-23 15:59 | 13.82503 | 100.54845 | 17969 ft | 390 kts | 329° |
| 2026-04-23 15:59 | 13.84829 | 100.53374 | 18331 ft | 393 kts | 329° |
| 2026-04-23 15:59 | 13.87166 | 100.51899 | 18681 ft | 395 kts | 329° |
| 2026-04-23 15:59 | 13.89517 | 100.50404 | 19050 ft | 397 kts | 327° |
| 2026-04-23 16:00 | 13.91625 | 100.48606 | 19391 ft | 401 kts | 315° |
| 2026-04-23 16:00 | 13.93365 | 100.46300 | 19747 ft | 404 kts | 302° |
| 2026-04-23 16:00 | 13.94548 | 100.43707 | 20079 ft | 409 kts | 289° |
| 2026-04-23 16:00 | 13.95173 | 100.40840 | 20416 ft | 412 kts | 279° |
| 2026-04-23 16:01 | 13.95572 | 100.37900 | 20767 ft | 414 kts | 279° |
| 2026-04-23 16:01 | 13.95981 | 100.34952 | 21117 ft | 417 kts | 279° |
| 2026-04-23 16:01 | 13.96397 | 100.31981 | 21449 ft | 419 kts | 279° |
| 2026-04-23 16:01 | 13.96811 | 100.29041 | 21758 ft | 421 kts | 279° |
| 2026-04-23 16:02 | 13.97335 | 100.26081 | 22080 ft | 422 kts | 286° |
| 2026-04-23 16:02 | 13.98341 | 100.23226 | 22402 ft | 422 kts | 297° |
| 2026-04-23 16:02 | 13.99813 | 100.20609 | 22720 ft | 423 kts | 305° |
| 2026-04-23 16:02 | 14.01466 | 100.18088 | 23036 ft | 424 kts | 304° |
| 2026-04-23 16:03 | 14.03118 | 100.15554 | 23330 ft | 427 kts | 304° |
| 2026-04-23 16:03 | 14.04773 | 100.12999 | 23600 ft | 429 kts | 304° |
| 2026-04-23 16:03 | 14.06426 | 100.10440 | 23878 ft | 430 kts | 304° |
| 2026-04-23 16:03 | 14.08067 | 100.07900 | 24136 ft | 432 kts | 304° |
| 2026-04-23 16:04 | 14.09741 | 100.05315 | 24373 ft | 434 kts | 304° |
| 2026-04-23 16:04 | 14.11422 | 100.02716 | 24636 ft | 435 kts | 304° |
| 2026-04-23 16:04 | 14.13081 | 100.00150 | 24914 ft | 436 kts | 304° |
| 2026-04-23 16:04 | 14.14770 | 99.97542 | 25190 ft | 437 kts | 304° |
| 2026-04-23 16:05 | 14.15911 | 99.95781 | 25376 ft | 438 kts | 304° |
| 2026-04-23 16:05 | 14.18162 | 99.92306 | 25672 ft | 440 kts | 304° |
| 2026-04-23 16:05 | 14.19863 | 99.89679 | 25970 ft | 441 kts | 304° |
| 2026-04-23 16:05 | 14.21572 | 99.87041 | 26204 ft | 443 kts | 304° |
| 2026-04-23 16:06 | 14.23290 | 99.84386 | 26476 ft | 444 kts | 304° |
| 2026-04-23 16:06 | 14.24986 | 99.81763 | 26718 ft | 446 kts | 304° |
| 2026-04-23 16:06 | 14.26716 | 99.79084 | 26943 ft | 448 kts | 304° |
| 2026-04-23 16:06 | 14.28450 | 99.76398 | 27192 ft | 450 kts | 304° |
| 2026-04-23 16:07 | 14.30181 | 99.73716 | 27428 ft | 451 kts | 304° |
| 2026-04-23 16:07 | 14.31902 | 99.71047 | 27668 ft | 453 kts | 304° |
| 2026-04-23 16:07 | 14.33651 | 99.68340 | 27979 ft | 453 kts | 304° |
| 2026-04-23 16:07 | 14.35396 | 99.65640 | 28354 ft | 452 kts | 304° |
| 2026-04-23 16:08 | 14.37137 | 99.62943 | 28734 ft | 450 kts | 304° |
| 2026-04-23 16:08 | 14.38870 | 99.60254 | 29131 ft | 449 kts | 304° |
| 2026-04-23 16:08 | 14.40593 | 99.57574 | 29562 ft | 447 kts | 304° |
| 2026-04-23 16:08 | 14.42292 | 99.54932 | 29953 ft | 446 kts | 304° |
| 2026-04-23 16:09 | 14.43977 | 99.52242 | 30298 ft | 445 kts | 300° |
| 2026-04-23 16:09 | 14.45431 | 99.49423 | 30627 ft | 445 kts | 298° |
| 2026-04-23 16:09 | 14.46864 | 99.46588 | 30943 ft | 444 kts | 298° |
| 2026-04-23 16:09 | 14.48289 | 99.43764 | 31302 ft | 442 kts | 297° |
| 2026-04-23 16:10 | 14.49707 | 99.40954 | 31683 ft | 441 kts | 297° |
| 2026-04-23 16:10 | 14.51124 | 99.38144 | 32036 ft | 440 kts | 297° |
| 2026-04-23 16:10 | 14.52517 | 99.35379 | 32418 ft | 438 kts | 297° |
| 2026-04-23 16:10 | 14.53918 | 99.32596 | 32769 ft | 437 kts | 297° |
| 2026-04-23 16:11 | 14.55316 | 99.29813 | 33141 ft | 436 kts | 297° |
| 2026-04-23 16:11 | 14.56709 | 99.27041 | 33532 ft | 434 kts | 297° |
| 2026-04-23 16:11 | 14.58099 | 99.24275 | 33863 ft | 433 kts | 297° |
| 2026-04-23 16:11 | 14.59491 | 99.21509 | 34111 ft | 434 kts | 297° |
| 2026-04-23 16:12 | 14.60883 | 99.18745 | 34402 ft | 433 kts | 297° |
| 2026-04-23 16:12 | 14.62261 | 99.16006 | 34596 ft | 434 kts | 297° |
| 2026-04-23 16:12 | 14.63660 | 99.13228 | 34837 ft | 434 kts | 297° |
| 2026-04-23 16:12 | 14.65055 | 99.10454 | 35105 ft | 433 kts | 297° |
| 2026-04-23 16:13 | 14.66447 | 99.07685 | 35358 ft | 433 kts | 297° |
| 2026-04-23 16:13 | 14.69217 | 99.02167 | 35727 ft | 435 kts | 297° |
| 2026-04-23 16:13 | 14.70614 | 98.99381 | 35853 ft | 436 kts | 297° |
| 2026-04-23 16:14 | 14.73427 | 98.93775 | 35894 ft | 447 kts | 297° |
| 2026-04-23 16:14 | 14.76311 | 98.88021 | 35898 ft | 453 kts | 297° |
| 2026-04-23 16:15 | 14.79209 | 98.82239 | 35896 ft | 452 kts | 297° |
| 2026-04-23 16:15 | 14.82108 | 98.76462 | 35897 ft | 452 kts | 297° |
| 2026-04-23 16:16 | 14.84984 | 98.70718 | 35900 ft | 452 kts | 296° |
| 2026-04-23 16:16 | 14.87866 | 98.64937 | 35903 ft | 452 kts | 296° |
| 2026-04-23 16:17 | 14.90736 | 98.59195 | 35902 ft | 452 kts | 296° |
| 2026-04-23 16:17 | 14.93624 | 98.53410 | 35904 ft | 451 kts | 296° |
| 2026-04-23 16:18 | 14.96486 | 98.47669 | 35898 ft | 451 kts | 296° |
| 2026-04-23 16:18 | 14.99370 | 98.41895 | 35899 ft | 451 kts | 296° |
| 2026-04-23 16:19 | 15.02252 | 98.36105 | 35902 ft | 451 kts | 296° |
| 2026-04-23 16:19 | 15.05126 | 98.30334 | 35898 ft | 451 kts | 296° |
| 2026-04-23 16:20 | 15.07980 | 98.24591 | 35898 ft | 451 kts | 296° |
| 2026-04-23 16:20 | 15.10844 | 98.18812 | 35894 ft | 451 kts | 296° |
| 2026-04-23 16:21 | 15.13671 | 98.13013 | 35894 ft | 451 kts | 295° |
| 2026-04-23 16:21 | 15.16474 | 98.07212 | 35893 ft | 450 kts | 295° |
| 2026-04-23 16:22 | 15.19267 | 98.01430 | 35885 ft | 450 kts | 295° |
| 2026-04-23 16:22 | 15.22087 | 97.95622 | 35881 ft | 450 kts | 295° |
| 2026-04-23 16:23 | 15.24904 | 97.89824 | 35884 ft | 450 kts | 295° |
| 2026-04-23 16:23 | 15.27698 | 97.84066 | 35873 ft | 450 kts | 295° |
| 2026-04-23 16:24 | 15.30499 | 97.78265 | 35873 ft | 450 kts | 295° |
| 2026-04-23 16:24 | 15.33305 | 97.72450 | 35867 ft | 450 kts | 295° |
| 2026-04-23 16:25 | 15.36092 | 97.66687 | 35867 ft | 450 kts | 295° |
| 2026-04-23 16:25 | 15.38895 | 97.60888 | 35866 ft | 450 kts | 295° |
| 2026-04-23 16:26 | 15.41700 | 97.55063 | 35854 ft | 450 kts | 295° |
| 2026-04-23 16:26 | 15.44485 | 97.49283 | 35854 ft | 450 kts | 295° |
| 2026-04-23 16:27 | 15.47374 | 97.43501 | 35855 ft | 451 kts | 296° |
| 2026-04-23 16:27 | 15.50345 | 97.37760 | 35856 ft | 451 kts | 297° |
| 2026-04-23 16:28 | 15.53291 | 97.32051 | 35863 ft | 451 kts | 296° |
| 2026-04-23 16:28 | 15.56232 | 97.26299 | 35865 ft | 450 kts | 296° |
| 2026-04-23 16:29 | 15.59131 | 97.20578 | 35867 ft | 450 kts | 296° |
| 2026-04-23 16:29 | 15.62048 | 97.14822 | 35865 ft | 449 kts | 296° |
| 2026-04-23 16:30 | 15.64961 | 97.09081 | 35864 ft | 449 kts | 296° |
| 2026-04-23 16:30 | 15.67879 | 97.03336 | 35864 ft | 449 kts | 296° |
| 2026-04-23 16:31 | 15.70768 | 96.97634 | 35857 ft | 449 kts | 296° |
| 2026-04-23 16:31 | 15.73678 | 96.91883 | 35857 ft | 449 kts | 296° |
| 2026-04-23 16:32 | 15.76584 | 96.86146 | 35858 ft | 449 kts | 296° |
| 2026-04-23 16:32 | 15.79493 | 96.80416 | 35854 ft | 449 kts | 296° |
| 2026-04-23 16:33 | 15.82397 | 96.74667 | 35852 ft | 449 kts | 296° |
| 2026-04-23 16:33 | 15.85285 | 96.68952 | 35848 ft | 449 kts | 296° |
| 2026-04-23 16:34 | 15.88186 | 96.63200 | 35847 ft | 449 kts | 295° |
| 2026-04-23 16:34 | 15.91088 | 96.57435 | 35857 ft | 449 kts | 295° |
| 2026-04-23 16:35 | 15.93966 | 96.51718 | 35862 ft | 448 kts | 296° |
| 2026-04-23 16:35 | 15.96855 | 96.45978 | 35862 ft | 447 kts | 295° |
| 2026-04-23 16:36 | 15.99743 | 96.40249 | 35853 ft | 447 kts | 295° |
| 2026-04-23 16:36 | 16.02624 | 96.34516 | 35850 ft | 447 kts | 295° |
| 2026-04-23 16:37 | 16.05547 | 96.28856 | 35847 ft | 448 kts | 302° |
| 2026-04-23 16:37 | 16.09279 | 96.23629 | 35845 ft | 449 kts | 304° |
| 2026-04-23 16:38 | 16.13021 | 96.18463 | 35842 ft | 449 kts | 304° |
| 2026-04-23 16:38 | 16.16155 | 96.14138 | 35842 ft | 449 kts | 304° |
| 2026-04-23 16:39 | 16.19908 | 96.08937 | 35841 ft | 449 kts | 304° |
| 2026-04-23 16:39 | 16.23668 | 96.03720 | 35845 ft | 449 kts | 304° |
| 2026-04-23 16:40 | 16.27422 | 95.98514 | 35855 ft | 449 kts | 304° |
| 2026-04-23 16:40 | 16.31149 | 95.93351 | 35858 ft | 448 kts | 304° |
| 2026-04-23 16:41 | 16.34879 | 95.88160 | 35856 ft | 447 kts | 304° |
| 2026-04-23 16:41 | 16.38605 | 95.82977 | 35854 ft | 446 kts | 304° |
| 2026-04-23 16:42 | 16.42306 | 95.77817 | 35853 ft | 446 kts | 304° |
| 2026-04-23 16:42 | 16.46033 | 95.72638 | 35852 ft | 446 kts | 304° |
| 2026-04-23 16:43 | 16.49754 | 95.67460 | 35855 ft | 446 kts | 304° |
| 2026-04-23 16:43 | 16.53465 | 95.62283 | 35852 ft | 445 kts | 304° |
| 2026-04-23 16:44 | 16.57143 | 95.57138 | 35846 ft | 445 kts | 304° |
| 2026-04-23 16:44 | 16.60853 | 95.51958 | 35848 ft | 445 kts | 304° |
| 2026-04-23 16:45 | 16.64568 | 95.46781 | 35857 ft | 444 kts | 304° |
| 2026-04-23 16:45 | 16.68237 | 95.41651 | 35860 ft | 443 kts | 303° |
| 2026-04-23 16:46 | 16.71925 | 95.36489 | 35858 ft | 442 kts | 303° |
| 2026-04-23 16:46 | 16.75592 | 95.31348 | 35859 ft | 442 kts | 303° |
| 2026-04-23 16:47 | 16.79266 | 95.26193 | 35855 ft | 441 kts | 303° |
| 2026-04-23 16:47 | 16.82939 | 95.21055 | 35855 ft | 441 kts | 303° |
| 2026-04-23 16:48 | 16.86583 | 95.15947 | 35850 ft | 441 kts | 303° |
| 2026-04-23 16:48 | 16.90250 | 95.10786 | 35840 ft | 441 kts | 303° |
| 2026-04-23 16:49 | 16.93886 | 95.05674 | 35852 ft | 441 kts | 303° |
| 2026-04-23 16:49 | 16.97547 | 95.00523 | 35841 ft | 441 kts | 303° |
| 2026-04-23 16:50 | 17.01209 | 94.95362 | 35860 ft | 440 kts | 303° |
| 2026-04-23 16:50 | 17.04836 | 94.90255 | 35862 ft | 439 kts | 303° |
| 2026-04-23 16:51 | 17.08477 | 94.85128 | 35860 ft | 438 kts | 303° |
| 2026-04-23 16:51 | 17.12091 | 94.80033 | 35859 ft | 437 kts | 303° |
| 2026-04-23 16:52 | 17.15711 | 94.74921 | 35861 ft | 437 kts | 303° |
| 2026-04-23 16:52 | 17.19324 | 94.69813 | 35852 ft | 437 kts | 303° |
| 2026-04-23 16:53 | 17.22910 | 94.64728 | 35850 ft | 436 kts | 303° |
| 2026-04-23 16:53 | 17.26529 | 94.59610 | 35853 ft | 436 kts | 303° |
| 2026-04-23 16:54 | 17.30119 | 94.54532 | 35851 ft | 436 kts | 303° |
| 2026-04-23 16:54 | 17.33737 | 94.49410 | 35858 ft | 436 kts | 303° |
| 2026-04-23 16:55 | 17.37339 | 94.44307 | 35870 ft | 435 kts | 303° |
| 2026-04-23 16:55 | 17.40935 | 94.39200 | 35866 ft | 435 kts | 303° |
| 2026-04-23 16:56 | 17.44515 | 94.34102 | 35854 ft | 434 kts | 303° |
| 2026-04-23 16:56 | 17.48071 | 94.29043 | 35856 ft | 434 kts | 303° |
| 2026-04-23 16:57 | 17.51656 | 94.23944 | 35852 ft | 434 kts | 303° |
| 2026-04-23 16:57 | 17.55243 | 94.18852 | 35858 ft | 434 kts | 303° |
| 2026-04-23 16:58 | 17.58805 | 94.13785 | 35857 ft | 434 kts | 303° |
| 2026-04-23 16:58 | 17.62376 | 94.08685 | 35853 ft | 434 kts | 303° |
| 2026-04-23 16:59 | 17.65952 | 94.03582 | 35851 ft | 434 kts | 303° |
| 2026-04-23 16:59 | 17.69529 | 93.98471 | 35854 ft | 434 kts | 303° |
| 2026-04-23 17:00 | 17.73080 | 93.93392 | 35864 ft | 433 kts | 303° |
| 2026-04-23 17:00 | 17.76651 | 93.88288 | 35863 ft | 432 kts | 303° |
| 2026-04-23 17:01 | 17.80190 | 93.83234 | 35863 ft | 432 kts | 303° |
| 2026-04-23 17:01 | 17.83735 | 93.78148 | 35873 ft | 431 kts | 302° |
| 2026-04-23 17:02 | 17.87277 | 93.73057 | 35870 ft | 431 kts | 302° |
| 2026-04-23 17:02 | 17.90815 | 93.67984 | 35869 ft | 430 kts | 302° |
| 2026-04-23 17:03 | 17.94332 | 93.62938 | 35867 ft | 430 kts | 302° |
| 2026-04-23 17:03 | 17.97868 | 93.57866 | 35863 ft | 430 kts | 302° |
| 2026-04-23 17:04 | 18.01405 | 93.52786 | 35855 ft | 430 kts | 302° |
| 2026-04-23 17:04 | 18.04917 | 93.47736 | 35857 ft | 430 kts | 302° |
| 2026-04-23 17:05 | 18.08448 | 93.42643 | 35869 ft | 429 kts | 302° |
| 2026-04-23 17:05 | 18.11942 | 93.37600 | 35866 ft | 428 kts | 302° |
| 2026-04-23 17:06 | 18.15455 | 93.32539 | 35865 ft | 427 kts | 302° |
| 2026-04-23 17:06 | 18.18956 | 93.27486 | 35863 ft | 427 kts | 302° |
| 2026-04-23 17:07 | 18.22435 | 93.22465 | 35862 ft | 427 kts | 302° |
| 2026-04-23 17:07 | 18.25935 | 93.17406 | 35860 ft | 427 kts | 302° |
| 2026-04-23 17:08 | 18.29427 | 93.12352 | 35858 ft | 427 kts | 302° |
| 2026-04-23 17:08 | 18.32899 | 93.07320 | 35856 ft | 426 kts | 302° |
| 2026-04-23 17:09 | 18.36388 | 93.02264 | 35860 ft | 426 kts | 302° |
| 2026-04-23 17:09 | 18.39874 | 92.97214 | 35857 ft | 426 kts | 302° |
| 2026-04-23 17:10 | 18.43340 | 92.92178 | 35864 ft | 426 kts | 302° |
| 2026-04-23 17:10 | 18.46765 | 92.87202 | 35865 ft | 425 kts | 302° |
| 2026-04-23 17:11 | 18.50220 | 92.82178 | 35862 ft | 424 kts | 302° |
| 2026-04-23 17:11 | 18.53681 | 92.77133 | 35860 ft | 424 kts | 302° |
| 2026-04-23 17:12 | 18.57125 | 92.72130 | 35857 ft | 424 kts | 302° |
| 2026-04-23 17:12 | 18.60590 | 92.67092 | 35856 ft | 423 kts | 302° |
| 2026-04-23 17:13 | 18.64043 | 92.62049 | 35855 ft | 423 kts | 302° |
| 2026-04-23 17:13 | 18.67473 | 92.57032 | 35856 ft | 423 kts | 302° |
| 2026-04-23 17:14 | 18.70926 | 92.51988 | 35853 ft | 423 kts | 302° |
| 2026-04-23 17:14 | 18.74266 | 92.47115 | 35852 ft | 423 kts | 302° |
| 2026-04-23 17:15 | 18.77692 | 92.42106 | 35850 ft | 423 kts | 302° |
| 2026-04-23 17:15 | 18.81127 | 92.37062 | 35849 ft | 423 kts | 302° |
| 2026-04-23 17:16 | 18.84572 | 92.32016 | 35846 ft | 423 kts | 302° |
| 2026-04-23 17:16 | 18.88013 | 92.26975 | 35848 ft | 423 kts | 302° |
| 2026-04-23 17:17 | 18.91430 | 92.21966 | 35847 ft | 423 kts | 302° |
| 2026-04-23 17:17 | 18.94871 | 92.16910 | 35845 ft | 423 kts | 302° |
| 2026-04-23 17:18 | 19.00026 | 92.09328 | 35841 ft | 423 kts | 302° |
| 2026-04-23 17:19 | 19.03450 | 92.04297 | 35840 ft | 423 kts | 302° |
| 2026-04-23 17:19 | 19.06880 | 91.99242 | 35840 ft | 423 kts | 301° |
| 2026-04-23 17:20 | 19.10317 | 91.94167 | 35838 ft | 423 kts | 301° |
| 2026-04-23 17:21 | 19.17149 | 91.84084 | 35852 ft | 422 kts | 301° |
| 2026-04-23 17:21 | 19.22273 | 91.76526 | 35848 ft | 421 kts | 301° |
| 2026-04-23 17:22 | 19.27383 | 91.68950 | 35841 ft | 421 kts | 301° |
| 2026-04-23 17:23 | 19.32476 | 91.61396 | 35836 ft | 421 kts | 301° |
| 2026-04-23 17:24 | 19.37566 | 91.53847 | 35832 ft | 421 kts | 301° |
| 2026-04-23 17:24 | 19.42094 | 91.47121 | 35835 ft | 421 kts | 301° |
| 2026-04-23 17:25 | 19.47753 | 91.38725 | 35843 ft | 421 kts | 301° |
| 2026-04-23 17:26 | 19.54519 | 91.28638 | 35837 ft | 420 kts | 301° |
| 2026-04-23 17:27 | 19.59027 | 91.21921 | 35829 ft | 419 kts | 301° |
| 2026-04-23 17:27 | 19.62401 | 91.16868 | 35828 ft | 419 kts | 301° |
| 2026-04-23 17:28 | 19.65775 | 91.11834 | 35833 ft | 419 kts | 301° |
| 2026-04-23 17:28 | 19.69166 | 91.06779 | 35827 ft | 419 kts | 301° |
| 2026-04-23 17:29 | 19.72527 | 91.01752 | 35824 ft | 419 kts | 301° |
| 2026-04-23 17:30 | 19.77587 | 90.94146 | 35825 ft | 419 kts | 301° |
| 2026-04-23 17:30 | 19.82646 | 90.86550 | 35831 ft | 419 kts | 301° |
| 2026-04-23 17:31 | 19.86000 | 90.81530 | 35830 ft | 418 kts | 300° |
| 2026-04-23 17:31 | 19.89363 | 90.76480 | 35827 ft | 418 kts | 300° |
| 2026-04-23 17:32 | 19.92722 | 90.71422 | 35831 ft | 418 kts | 300° |
| 2026-04-23 17:32 | 19.96048 | 90.66406 | 35828 ft | 417 kts | 300° |
| 2026-04-23 17:33 | 19.99408 | 90.61352 | 35824 ft | 417 kts | 300° |
| 2026-04-23 17:33 | 20.02741 | 90.56325 | 35822 ft | 417 kts | 300° |
| 2026-04-23 17:34 | 20.06070 | 90.51289 | 35824 ft | 417 kts | 300° |
| 2026-04-23 17:35 | 20.11102 | 90.43700 | 35818 ft | 417 kts | 300° |
| 2026-04-23 17:35 | 20.16097 | 90.36147 | 35839 ft | 416 kts | 300° |
| 2026-04-23 17:36 | 20.19427 | 90.31098 | 35837 ft | 415 kts | 300° |
| 2026-04-23 17:36 | 20.22737 | 90.26061 | 35831 ft | 414 kts | 299° |
| 2026-04-23 17:37 | 20.26032 | 90.21060 | 35826 ft | 414 kts | 300° |
| 2026-04-23 17:38 | 20.31005 | 90.13520 | 35827 ft | 414 kts | 299° |
| 2026-04-23 17:38 | 20.34298 | 90.08510 | 35829 ft | 414 kts | 300° |
| 2026-04-23 17:39 | 20.37611 | 90.03472 | 35816 ft | 414 kts | 299° |
| 2026-04-23 17:39 | 20.40902 | 89.98463 | 35821 ft | 414 kts | 299° |
| 2026-04-23 17:40 | 20.44207 | 89.93427 | 35821 ft | 414 kts | 299° |
| 2026-04-23 17:40 | 20.47488 | 89.88429 | 35841 ft | 413 kts | 299° |
| 2026-04-23 17:41 | 20.50787 | 89.83401 | 35833 ft | 413 kts | 299° |
| 2026-04-23 17:41 | 20.55690 | 89.75891 | 35825 ft | 412 kts | 299° |
| 2026-04-23 17:42 | 20.60612 | 89.68363 | 35824 ft | 411 kts | 299° |
| 2026-04-23 17:43 | 20.63868 | 89.63364 | 35823 ft | 411 kts | 299° |
| 2026-04-23 17:43 | 20.67142 | 89.58333 | 35818 ft | 411 kts | 299° |
| 2026-04-23 17:44 | 20.70396 | 89.53339 | 35814 ft | 411 kts | 299° |
| 2026-04-23 17:44 | 20.75320 | 89.45786 | 35819 ft | 411 kts | 299° |
| 2026-04-23 17:45 | 20.80212 | 89.38262 | 35815 ft | 411 kts | 299° |
| 2026-04-23 17:46 | 20.85081 | 89.30756 | 35829 ft | 410 kts | 299° |
| 2026-04-23 17:46 | 20.88330 | 89.25736 | 35823 ft | 409 kts | 299° |
| 2026-04-23 17:47 | 20.91996 | 89.21021 | 35816 ft | 420 kts | 313° |
| 2026-04-23 17:47 | 20.97118 | 89.17835 | 35809 ft | 436 kts | 328° |
| 2026-04-23 17:48 | 20.99887 | 89.16507 | 35805 ft | 436 kts | 328° |
| 2026-04-23 17:48 | 21.05427 | 89.13833 | 35799 ft | 436 kts | 328° |
| 2026-04-23 17:49 | 21.10932 | 89.11155 | 35800 ft | 436 kts | 328° |
| 2026-04-23 17:49 | 21.16465 | 89.08465 | 35810 ft | 436 kts | 327° |
| 2026-04-23 17:50 | 21.21992 | 89.05781 | 35809 ft | 435 kts | 327° |
| 2026-04-23 17:50 | 21.30261 | 89.01762 | 35804 ft | 435 kts | 327° |
| 2026-04-23 17:51 | 21.35773 | 88.99082 | 35803 ft | 434 kts | 327° |
| 2026-04-23 17:51 | 21.41244 | 88.96410 | 35677 ft | 435 kts | 327° |
| 2026-04-23 17:52 | 21.43999 | 88.95065 | 35432 ft | 434 kts | 327° |
| 2026-04-23 17:52 | 21.49483 | 88.92391 | 34060 ft | 429 kts | 327° |
| 2026-04-23 17:52 | 21.52185 | 88.91076 | 33205 ft | 424 kts | 328° |
| 2026-04-23 17:53 | 21.57570 | 88.88434 | 31795 ft | 427 kts | 328° |
| 2026-04-23 17:53 | 21.60261 | 88.87115 | 31300 ft | 424 kts | 328° |
| 2026-04-23 17:53 | 21.62946 | 88.85805 | 30787 ft | 422 kts | 329° |
| 2026-04-23 17:54 | 21.65616 | 88.84502 | 30267 ft | 420 kts | 329° |
| 2026-04-23 17:54 | 21.68273 | 88.83203 | 29730 ft | 418 kts | 329° |
| 2026-04-23 17:54 | 21.73534 | 88.80630 | 28665 ft | 411 kts | 330° |
| 2026-04-23 17:55 | 21.78705 | 88.78106 | 27637 ft | 405 kts | 330° |
| 2026-04-23 17:55 | 21.81269 | 88.76850 | 27136 ft | 402 kts | 331° |
| 2026-04-23 17:55 | 21.83785 | 88.75616 | 26637 ft | 400 kts | 331° |
| 2026-04-23 17:56 | 21.86316 | 88.74370 | 26148 ft | 398 kts | 331° |
| 2026-04-23 17:56 | 21.91335 | 88.71896 | 25194 ft | 394 kts | 332° |
| 2026-04-23 17:56 | 21.93822 | 88.70671 | 24738 ft | 392 kts | 332° |
| 2026-04-23 17:57 | 21.96306 | 88.69450 | 24276 ft | 391 kts | 333° |
| 2026-04-23 17:57 | 21.98750 | 88.68249 | 23840 ft | 390 kts | 333° |
| 2026-04-23 17:57 | 22.03676 | 88.65826 | 22904 ft | 387 kts | 334° |
| 2026-04-23 17:58 | 22.06120 | 88.64625 | 22468 ft | 383 kts | 334° |
| 2026-04-23 17:58 | 22.08535 | 88.63437 | 22048 ft | 380 kts | 334° |
| 2026-04-23 17:58 | 22.10927 | 88.62258 | 21615 ft | 376 kts | 334° |
| 2026-04-23 17:58 | 22.13278 | 88.61098 | 21172 ft | 373 kts | 335° |
| 2026-04-23 17:59 | 22.15638 | 88.59932 | 20716 ft | 371 kts | 335° |
| 2026-04-23 17:59 | 22.17987 | 88.58768 | 20263 ft | 370 kts | 335° |
| 2026-04-23 17:59 | 22.20327 | 88.57610 | 19795 ft | 369 kts | 336° |
| 2026-04-23 17:59 | 22.22657 | 88.56459 | 19334 ft | 368 kts | 336° |
| 2026-04-23 18:00 | 22.24987 | 88.55311 | 18856 ft | 368 kts | 337° |
| 2026-04-23 18:00 | 22.27363 | 88.54287 | 18379 ft | 367 kts | 345° |
| 2026-04-23 18:00 | 22.29849 | 88.53728 | 17896 ft | 364 kts | 356° |
| 2026-04-23 18:00 | 22.32297 | 88.53640 | 17428 ft | 354 kts | 5° |
| 2026-04-23 18:01 | 22.34750 | 88.53882 | 16998 ft | 351 kts | 7° |
| 2026-04-23 18:01 | 22.37178 | 88.54139 | 16559 ft | 349 kts | 7° |
| 2026-04-23 18:01 | 22.39587 | 88.54391 | 16120 ft | 347 kts | 7° |
| 2026-04-23 18:01 | 22.41988 | 88.54641 | 15685 ft | 345 kts | 6° |
| 2026-04-23 18:02 | 22.43573 | 88.54807 | 15400 ft | 344 kts | 6° |
| 2026-04-23 18:02 | 22.46756 | 88.55144 | 14822 ft | 342 kts | 6° |
| 2026-04-23 18:02 | 22.49119 | 88.55396 | 14388 ft | 341 kts | 6° |
| 2026-04-23 18:02 | 22.51485 | 88.55648 | 13973 ft | 340 kts | 6° |
| 2026-04-23 18:03 | 22.53814 | 88.55895 | 13540 ft | 339 kts | 5° |
| 2026-04-23 18:03 | 22.56165 | 88.56145 | 13074 ft | 337 kts | 5° |
| 2026-04-23 18:03 | 22.58494 | 88.56393 | 12645 ft | 335 kts | 5° |
| 2026-04-23 18:03 | 22.60815 | 88.56637 | 12222 ft | 333 kts | 5° |
| 2026-04-23 18:04 | 22.63081 | 88.56874 | 11806 ft | 331 kts | 4° |
| 2026-04-23 18:04 | 22.65371 | 88.57114 | 11377 ft | 329 kts | 4° |
| 2026-04-23 18:04 | 22.67653 | 88.57354 | 10970 ft | 328 kts | 4° |
| 2026-04-23 18:04 | 22.69916 | 88.57595 | 10480 ft | 323 kts | 4° |
| 2026-04-23 18:05 | 22.72120 | 88.57827 | 9818 ft | 319 kts | 3° |
| 2026-04-23 18:05 | 22.74256 | 88.58042 | 9681 ft | 297 kts | 2° |
| 2026-04-23 18:05 | 22.76246 | 88.58239 | 9561 ft | 277 kts | 2° |
| 2026-04-23 18:05 | 22.78110 | 88.58422 | 9433 ft | 259 kts | 1° |
| 2026-04-23 18:06 | 22.79840 | 88.58593 | 9229 ft | 246 kts | 1° |
| 2026-04-23 18:06 | 22.81530 | 88.58759 | 8871 ft | 244 kts | 1° |
| 2026-04-23 18:06 | 22.83205 | 88.58920 | 8617 ft | 241 kts | 2° |
| 2026-04-23 18:06 | 22.84881 | 88.59079 | 8335 ft | 240 kts | 2° |
| 2026-04-23 18:07 | 22.86539 | 88.59288 | 8055 ft | 240 kts | 5° |
| 2026-04-23 18:07 | 22.88186 | 88.59538 | 7694 ft | 237 kts | 6° |
| 2026-04-23 18:07 | 22.89797 | 88.59803 | 7457 ft | 227 kts | 6° |
| 2026-04-23 18:07 | 22.91315 | 88.60067 | 7304 ft | 214 kts | 6° |
| 2026-04-23 18:08 | 22.92268 | 88.60236 | 7235 ft | 204 kts | 6° |
| 2026-04-23 18:08 | 22.94051 | 88.60555 | 7060 ft | 188 kts | 6° |
| 2026-04-23 18:08 | 22.95301 | 88.60780 | 6895 ft | 177 kts | 6° |
| 2026-04-23 18:08 | 22.96508 | 88.60997 | 6608 ft | 174 kts | 7° |
| 2026-04-23 18:09 | 22.97736 | 88.61216 | 6023 ft | 188 kts | 7° |
| 2026-04-23 18:09 | 22.99089 | 88.61457 | 5277 ft | 206 kts | 8° |
| 2026-04-23 18:09 | 23.00474 | 88.61707 | 5056 ft | 193 kts | 8° |
| 2026-04-23 18:09 | 23.01745 | 88.61909 | 4923 ft | 176 kts | 358° |
| 2026-04-23 18:10 | 23.02835 | 88.61484 | 4708 ft | 165 kts | 314° |
| 2026-04-23 18:10 | 23.03389 | 88.60411 | 4386 ft | 165 kts | 287° |
| 2026-04-23 18:10 | 23.03670 | 88.59206 | 4074 ft | 167 kts | 282° |
| 2026-04-23 18:10 | 23.03908 | 88.57973 | 3768 ft | 166 kts | 281° |
| 2026-04-23 18:11 | 23.04143 | 88.56738 | 3454 ft | 167 kts | 281° |
| 2026-04-23 18:11 | 23.04302 | 88.55916 | 3250 ft | 170 kts | 281° |
| 2026-04-23 18:11 | 23.04552 | 88.54659 | 3072 ft | 166 kts | 281° |
| 2026-04-23 18:11 | 23.04797 | 88.53453 | 2923 ft | 161 kts | 280° |
| 2026-04-23 18:12 | 23.04819 | 88.52260 | 2709 ft | 157 kts | 255° |
| 2026-04-23 18:12 | 23.04384 | 88.51201 | 2489 ft | 153 kts | 225° |
| 2026-04-23 18:12 | 23.03521 | 88.50626 | 2337 ft | 141 kts | 193° |
| 2026-04-23 18:12 | 23.02561 | 88.50408 | 2045 ft | 141 kts | 191° |
| 2026-04-23 18:13 | 23.01605 | 88.50201 | 1989 ft | 142 kts | 191° |
| 2026-04-23 18:13 | 23.00648 | 88.49996 | 1987 ft | 142 kts | 191° |
| 2026-04-23 18:13 | 22.99674 | 88.49789 | 1990 ft | 142 kts | 191° |
| 2026-04-23 18:13 | 22.98702 | 88.49583 | 1991 ft | 142 kts | 191° |
| 2026-04-23 18:14 | 22.97732 | 88.49376 | 1991 ft | 141 kts | 192° |
| 2026-04-23 18:14 | 22.96767 | 88.49171 | 1989 ft | 141 kts | 191° |
| 2026-04-23 18:14 | 22.95803 | 88.48966 | 1989 ft | 141 kts | 191° |
| 2026-04-23 18:14 | 22.94842 | 88.48761 | 1997 ft | 140 kts | 191° |
| 2026-04-23 18:15 | 22.93892 | 88.48558 | 1995 ft | 140 kts | 191° |
| 2026-04-23 18:15 | 22.92959 | 88.48235 | 1995 ft | 141 kts | 194° |
| 2026-04-23 18:15 | 22.91993 | 88.47999 | 1998 ft | 141 kts | 190° |
| 2026-04-23 18:15 | 22.91027 | 88.47829 | 1995 ft | 141 kts | 188° |
| 2026-04-23 18:16 | 22.90059 | 88.47688 | 1996 ft | 141 kts | 187° |
| 2026-04-23 18:16 | 22.89077 | 88.47559 | 1998 ft | 140 kts | 187° |
| 2026-04-23 18:16 | 22.88110 | 88.47440 | 1997 ft | 140 kts | 187° |
| 2026-04-23 18:17 | 22.86163 | 88.47207 | 2000 ft | 141 kts | 185° |
| 2026-04-23 18:17 | 22.85197 | 88.47092 | 1998 ft | 142 kts | 185° |
| 2026-04-23 18:17 | 22.84221 | 88.46977 | 2000 ft | 141 kts | 186° |
| 2026-04-23 18:17 | 22.83243 | 88.46863 | 2000 ft | 141 kts | 186° |
| 2026-04-23 18:18 | 22.82270 | 88.46748 | 2001 ft | 140 kts | 186° |
| 2026-04-23 18:18 | 22.81301 | 88.46634 | 2004 ft | 140 kts | 186° |
| 2026-04-23 18:18 | 22.80328 | 88.46520 | 2003 ft | 141 kts | 185° |
| 2026-04-23 18:18 | 22.79347 | 88.46405 | 2001 ft | 142 kts | 186° |
| 2026-04-23 18:19 | 22.78360 | 88.46289 | 2001 ft | 143 kts | 185° |
| 2026-04-23 18:19 | 22.77385 | 88.46175 | 1908 ft | 141 kts | 187° |
| 2026-04-23 18:19 | 22.76413 | 88.46061 | 1763 ft | 139 kts | 187° |
| 2026-04-23 18:19 | 22.75454 | 88.45949 | 1609 ft | 138 kts | 187° |
| 2026-04-23 18:20 | 22.74503 | 88.45837 | 1436 ft | 137 kts | 187° |
| 2026-04-23 18:20 | 22.73559 | 88.45726 | 1260 ft | 138 kts | 187° |
| 2026-04-23 18:20 | 22.72608 | 88.45615 | 1086 ft | 137 kts | 186° |
| 2026-04-23 18:20 | 22.71657 | 88.45504 | 913 ft | 136 kts | 186° |
| 2026-04-23 18:21 | 22.70709 | 88.45392 | 756 ft | 137 kts | 186° |
| 2026-04-23 18:21 | 22.69764 | 88.45282 | 587 ft | 137 kts | 186° |
| 2026-04-23 18:21 | 22.68811 | 88.45170 | 408 ft | 140 kts | 186° |
| 2026-04-23 18:21 | 22.67846 | 88.45054 | 197 ft | 140 kts | 186° |
| 2026-04-23 18:22 | 22.66883 | 88.44937 | 39 ft | 138 kts | 187° |
| 2026-04-23 18:22 | 22.66043 | 88.44845 | 29 ft | 97 kts | 186° |
| 2026-04-23 18:22 | 22.65537 | 88.44787 | 30 ft | 55 kts | 186° |
| 2026-04-23 18:22 | 22.65169 | 88.44740 | 23 ft | 53 kts | 187° |
| 2026-04-23 18:23 | 22.64996 | 88.44711 | 21 ft | 30 kts | 199° |
| 2026-04-23 18:23 | 22.64713 | 88.44515 | 25 ft | 21 kts | 213° |
| 2026-04-23 18:24 | 22.64670 | 88.44324 | 24 ft | 15 kts | 277° |
| 2026-04-23 18:24 | 22.64687 | 88.44209 | 24 ft | 11 kts | 301° |
| 2026-04-23 18:24 | 22.64740 | 88.44179 | 25 ft | 6 kts | 302° |
| 2026-04-23 18:25 | 22.64747 | 88.44103 | 24 ft | 1 kts | 277° |